Texas General Land Office
 Texas General Land Office
 George P. Bush, Commissioner

 Oil Spill Prevention
 & Response

Texas Automated Buoy System
Real Time Ocean Observations
Supporting Oil Spill Prevention and
Response since 1995
Geochemical and Environmental Research Group

TABS Buoy D -- Texas Automated Buoy System

TABS Buoy D Conditions at 06/18/2019 06:30 UTC (06/18/2019 01:30 CDT)
27° 56.3760'N   96° 50.5740'W
AA3900 DCS - sensor depth 2m
Water Depth: 60 feet (18 meters)
Speed: 17.02 cm/s (0.33 kts) Direction: 19 °T (NNE) Water Temp: 29°C (83 °F)
System Voltage: 12.1 V Signal Strength: -11.9 dB Ping Count: 127
  


IMPORTANT: Notice to Mariners


Today's Velocity Data (download)

   Date   |  Time  |   East |   North|   Speed|  Dir | WaterT |
          |  (UTC) |  (cm/s)|  (cm/s)|  (cm/s)| (°T) |  (°C)  |
==========+========+========+========+========+======+========+
06/16/2019 23:30:00    16.59    18.28    24.69   42.2   28.7
06/17/2019 00:00:00    23.68    24.74    34.25   43.7   28.7
06/17/2019 00:30:00    23.11    23.65    33.07   44.3   28.6
06/17/2019 01:00:00    17.38    19.58    26.18   41.6   28.6
06/17/2019 01:30:00    16.50    17.23    23.86   43.8   28.6
06/17/2019 02:00:00    14.65    15.34    21.21   43.7   28.6
06/17/2019 02:30:00    13.65    18.24    22.78   36.8   28.5
06/17/2019 03:00:00    14.11    15.09    20.66   43.1   28.5
06/17/2019 03:30:00    11.94    19.73    23.06   31.2   28.5
06/17/2019 04:00:00    13.64    18.43    22.93   36.5   28.4
06/17/2019 04:30:00    13.44    19.41    23.61   34.7   28.4
06/17/2019 05:00:00    14.41    20.98    25.45   34.5   28.4
06/17/2019 05:30:00     8.24    17.52    19.36   25.2   28.4
06/17/2019 06:00:00     9.45    16.54    19.05   29.7   28.4
06/17/2019 06:30:00     8.13    16.54    18.43   26.2   28.4
06/17/2019 07:00:00    11.18    14.23    18.10   38.2   28.3
06/17/2019 07:30:00     6.98    19.77    20.97   19.4   28.3
06/17/2019 08:00:00    13.32    19.21    23.38   34.7   28.3
06/17/2019 08:30:00     8.99    23.00    24.69   21.3   28.3
06/17/2019 09:00:00    15.21    33.73    37.00   24.3   28.3
06/17/2019 09:30:00    16.45    31.31    35.37   27.7   28.3
06/17/2019 10:00:00    14.08    19.54    24.08   35.8   28.3
06/17/2019 10:30:00    13.38    12.46    18.28   47.0   28.2
06/17/2019 11:00:00     2.00    10.69    10.88   10.6   28.2
06/17/2019 11:30:00     4.24    11.72    12.46   19.9   28.2
06/17/2019 12:00:00     1.54     6.68     6.86   13.0   28.1
06/17/2019 12:30:00     2.39     8.34     8.68   16.0   28.1
06/17/2019 13:00:00    -5.04     8.86    10.19  330.4   28.1
06/17/2019 13:30:00    -8.70     6.71    10.99  307.6   28.1
06/17/2019 14:00:00    -8.11     3.23     8.73  291.7   28.1
06/17/2019 14:30:00    -8.32    -2.00     8.56  256.5   28.1
06/17/2019 15:00:00    -9.11     1.35     9.21  278.4   28.1
06/17/2019 15:30:00    -7.67    -1.22     7.77  261.0   28.1
06/17/2019 16:00:00    -8.55     2.18     8.82  284.3   28.1
06/17/2019 16:30:00    -8.36     6.26    10.44  306.8   28.2
06/17/2019 17:00:00    -9.63     2.86    10.05  286.5   28.2
06/17/2019 17:30:00   -10.74     4.94    11.82  294.7   28.3
06/17/2019 18:00:00   -10.38     7.30    12.69  305.1   28.3
06/17/2019 18:30:00   -10.86     7.39    13.14  304.2   28.4
06/17/2019 19:00:00   -10.06    12.14    15.77  320.4   28.4
06/17/2019 19:30:00    -9.91    10.33    14.31  316.2   28.5
06/17/2019 20:00:00    -8.46    11.48    14.26  323.6   28.6
06/17/2019 20:30:00    -8.57    10.42    13.49  320.6   28.8
06/17/2019 21:00:00    -7.87     9.15    12.07  319.3   28.8
06/17/2019 21:30:00    -5.62    13.51    14.63  337.4   28.9
06/17/2019 22:00:00    -3.08     7.78     8.37  338.4   28.9
06/17/2019 22:30:00    -4.91     7.30     8.80  326.1   28.9
06/17/2019 23:00:00    -2.27    11.21    11.44  348.6   29.0
06/17/2019 23:30:00    -3.57    10.33    10.93  340.9   29.0
06/18/2019 00:00:00     1.19    12.48    12.54    5.4   29.0
06/18/2019 00:30:00     3.99    12.02    12.66   18.4   29.0
06/18/2019 01:00:00     4.62    11.46    12.36   22.0   29.0
06/18/2019 01:30:00     4.20     7.86     8.91   28.1   29.0
06/18/2019 02:00:00     2.25     5.76     6.18   21.3   28.9
06/18/2019 02:30:00     1.84     8.48     8.68   12.2   28.9
06/18/2019 03:00:00     1.44     9.56     9.67    8.6   28.9
06/18/2019 03:30:00     0.48     6.73     6.75    4.1   28.8
06/18/2019 04:00:00     4.45     9.79    10.75   24.4   28.7
06/18/2019 04:30:00     2.00     8.26     8.50   13.6   28.6
06/18/2019 05:00:00     2.58     5.36     5.95   25.7   28.5
06/18/2019 05:30:00     1.23     8.59     8.68    8.1   28.5
06/18/2019 06:00:00     2.72     6.98     7.49   21.3   28.7
06/18/2019 06:30:00     5.44    16.13    17.02   18.6   28.6



       
 

Today's Temperature - Salinity Data     (Download)


   Date   |  Time  |   Temp |   Cond |Salinity| Density|SoundVel|
          |  (UTC) |   (°C) | (ms/cm)|        | kg/m^3 |  (m/s) |
==========+========+========+========+========+========+========+
06/16/2019 23:30:00    29.42     4.67    27.57     0.00     0.00
06/17/2019 00:00:00    29.35     4.67    27.63     0.00     0.00
06/17/2019 00:30:00    29.34     4.67    27.65     0.00     0.00
06/17/2019 01:00:00    29.33     4.67    27.67     0.00     0.00
06/17/2019 01:30:00    29.30     4.68    27.71     0.00     0.00
06/17/2019 02:00:00    29.28     4.68    27.73     0.00     0.00
06/17/2019 02:30:00    29.25     4.68    27.75     0.00     0.00
06/17/2019 03:00:00    29.25     4.68    27.79     0.00     0.00
06/17/2019 03:30:00    29.18     4.69    27.84     0.00     0.00
06/17/2019 04:00:00    29.13     4.71    28.02     0.00     0.00
06/17/2019 04:30:00    29.06     4.71    28.09     0.00     0.00
06/17/2019 05:00:00    29.08     4.71    28.03     0.00     0.00
06/17/2019 05:30:00    29.07     4.70    28.02     0.00     0.00
06/17/2019 06:00:00    29.07     4.70    28.01     0.00     0.00
06/17/2019 06:30:00    29.06     4.70    28.00     0.00     0.00
06/17/2019 07:00:00    29.04     4.70    28.00     0.00     0.00
06/17/2019 07:30:00    29.03     4.70    27.99     0.00     0.00
06/17/2019 08:00:00    29.02     4.70    28.01     0.00     0.00
06/17/2019 08:30:00    29.02     4.70    28.00     0.00     0.00
06/17/2019 09:00:00    29.01     4.69    27.98     0.00     0.00
06/17/2019 09:30:00    29.00     4.69    27.94     0.00     0.00
06/17/2019 10:00:00    28.97     4.68    27.92     0.00     0.00
06/17/2019 10:30:00    28.91     4.68    27.93     0.00     0.00
06/17/2019 11:00:00    28.89     4.67    27.93     0.00     0.00
06/17/2019 11:30:00    28.88     4.67    27.93     0.00     0.00
06/17/2019 12:00:00    28.85     4.67    27.94     0.00     0.00
06/17/2019 12:30:00    28.82     4.67    27.95     0.00     0.00
06/17/2019 13:00:00    28.82     4.67    27.96     0.00     0.00
06/17/2019 13:30:00    28.80     4.67    27.94     0.00     0.00
06/17/2019 14:00:00    28.79     4.67    27.93     0.00     0.00
06/17/2019 14:30:00    28.79     4.67    27.92     0.00     0.00
06/17/2019 15:00:00    28.81     4.66    27.89     0.00     0.00
06/17/2019 15:30:00    28.83     4.66    27.88     0.00     0.00
06/17/2019 16:00:00    28.85     4.66    27.85     0.00     0.00
06/17/2019 16:30:00    28.90     4.66    27.83     0.00     0.00
06/17/2019 17:00:00    28.96     4.66    27.82     0.00     0.00
06/17/2019 17:30:00    28.97     4.66    27.81     0.00     0.00
06/17/2019 18:00:00    29.04     4.66    27.76     0.00     0.00
06/17/2019 18:30:00    29.13     4.66    27.72     0.00     0.00
06/17/2019 19:00:00    29.16     4.66    27.70     0.00     0.00
06/17/2019 19:30:00    29.35     4.68    27.68     0.00     0.00
06/17/2019 20:00:00    29.42     4.68    27.66     0.00     0.00
06/17/2019 20:30:00    29.51     4.69    27.65     0.00     0.00
06/17/2019 21:00:00    29.53     4.68    27.62     0.00     0.00
06/17/2019 21:30:00    29.70     4.70    27.61     0.00     0.00
06/17/2019 22:00:00    29.73     4.70    27.60     0.00     0.00
06/17/2019 22:30:00    29.60     4.69    27.60     0.00     0.00
06/17/2019 23:00:00    29.73     4.70    27.59     0.00     0.00
06/17/2019 23:30:00    29.71     4.70    27.60     0.00     0.00
06/18/2019 00:00:00    29.68     4.69    27.58     0.00     0.00
06/18/2019 00:30:00    29.75     4.70    27.60     0.00     0.00
06/18/2019 01:00:00    29.73     4.70    27.61     0.00     0.00
06/18/2019 01:30:00    29.70     4.70    27.62     0.00     0.00
06/18/2019 02:00:00    29.66     4.69    27.60     0.00     0.00
06/18/2019 02:30:00    29.62     4.69    27.63     0.00     0.00
06/18/2019 03:00:00    29.58     4.69    27.61     0.00     0.00
06/18/2019 03:30:00    29.48     4.68    27.60     0.00     0.00
06/18/2019 04:00:00    29.37     4.66    27.57     0.00     0.00
06/18/2019 04:30:00    29.27     4.65    27.57     0.00     0.00
06/18/2019 05:00:00    29.19     4.65    27.58     0.00     0.00
06/18/2019 05:30:00    29.22     4.65    27.56     0.00     0.00
06/18/2019 06:00:00    29.40     4.66    27.52     0.00     0.00
06/18/2019 06:30:00    29.35     4.65    27.51     0.00     0.00
06/18/2019 07:00:00    29.32     4.65    27.51     0.00     0.00